createdAt,value
2024-05-09T00:00:35.767Z,29.40
2024-05-09T00:03:10.868Z,22.95
2024-05-09T00:05:41.072Z,25.67
2024-05-09T00:08:08.997Z,22.48
2024-05-09T00:10:38.262Z,24.60
2024-05-09T00:13:07.492Z,30.42
2024-05-09T00:15:35.480Z,23.10
2024-05-09T00:18:03.384Z,21.58
2024-05-09T00:20:37.651Z,20.92
2024-05-09T00:23:16.182Z,23.88
2024-05-09T00:25:43.795Z,24.40
2024-05-09T00:28:14.248Z,23.05
2024-05-09T00:30:41.232Z,22.80
2024-05-09T00:33:09.870Z,20.60
2024-05-09T00:35:38.505Z,23.58
2024-05-09T00:38:05.648Z,28.60
2024-05-09T00:40:41.990Z,21.15
2024-05-09T00:43:14.735Z,25.00
2024-05-09T00:45:42.934Z,22.05
2024-05-09T00:48:13.483Z,25.40
2024-05-09T00:50:44.179Z,25.63
2024-05-09T00:53:12.993Z,22.63
2024-05-09T00:55:40.223Z,22.92
2024-05-09T00:58:09.225Z,22.83
2024-05-09T01:00:39.770Z,24.38
2024-05-09T01:03:10.796Z,23.70
2024-05-09T01:05:40.023Z,20.83
2024-05-09T01:08:07.628Z,20.55
2024-05-09T01:10:35.991Z,20.35
2024-05-09T01:13:07.443Z,30.63
2024-05-09T01:15:35.134Z,21.92
2024-05-09T01:18:13.180Z,22.35
2024-05-09T01:20:43.708Z,21.95
2024-05-09T01:23:14.656Z,23.42
2024-05-09T01:25:43.918Z,22.70
2024-05-09T01:28:11.029Z,24.95
2024-05-09T01:30:38.560Z,20.27
2024-05-09T01:33:08.474Z,18.77
2024-05-09T01:35:37.233Z,21.38
2024-05-09T01:38:04.550Z,22.80
2024-05-09T01:40:38.361Z,23.88
2024-05-09T01:43:08.822Z,25.05
2024-05-09T01:45:36.661Z,21.08
2024-05-09T01:48:03.906Z,24.50
2024-05-09T01:53:00.737Z,22.80
2024-05-09T01:55:27.586Z,20.50
2024-05-09T01:57:54.313Z,20.90
2024-05-09T02:00:30.611Z,29.25
2024-05-09T02:03:05.398Z,21.85
2024-05-09T02:05:32.316Z,31.27
2024-05-09T02:07:59.213Z,28.10
2024-05-09T02:10:32.148Z,23.98
2024-05-09T02:12:59.949Z,23.10
2024-05-09T02:15:26.786Z,24.42
2024-05-09T02:17:53.738Z,24.38
2024-05-09T02:20:30.143Z,23.42
2024-05-09T02:23:04.632Z,24.55
2024-05-09T02:25:32.918Z,25.95
2024-05-09T02:27:59.900Z,21.67
2024-05-09T02:30:36.570Z,22.35
2024-05-09T02:33:08.070Z,25.00
2024-05-09T02:35:35.635Z,21.30
2024-05-09T02:38:02.569Z,22.85
2024-05-09T02:40:36.397Z,26.00
2024-05-09T02:43:10.196Z,22.27
2024-05-09T02:45:38.506Z,21.73
2024-05-09T02:48:06.099Z,20.77
2024-05-09T02:50:37.742Z,19.90
2024-05-09T02:53:07.663Z,23.55
2024-05-09T02:55:34.738Z,19.95
2024-05-09T02:58:01.605Z,23.23
2024-05-09T03:00:36.807Z,26.27
2024-05-09T03:03:08.734Z,20.98
2024-05-09T03:05:36.938Z,21.48
2024-05-09T03:08:04.476Z,23.67
2024-05-09T03:10:36.008Z,26.25
2024-05-09T03:13:14.657Z,18.77
2024-05-09T03:15:42.836Z,22.17
2024-05-09T03:18:10.168Z,24.42
2024-05-09T03:20:38.208Z,19.85
2024-05-09T03:23:08.048Z,22.77
2024-05-09T03:25:37.243Z,24.17
2024-05-09T03:28:04.286Z,24.48
2024-05-09T03:30:39.733Z,22.67
2024-05-09T03:33:18.794Z,22.80
2024-05-09T03:35:47.531Z,19.83
2024-05-09T03:38:14.601Z,26.85
2024-05-09T03:40:50.347Z,21.52
2024-05-09T03:43:18.820Z,21.70
2024-05-09T03:45:47.460Z,22.02
2024-05-09T03:48:14.559Z,19.42
2024-05-09T03:50:41.674Z,22.08
2024-05-09T03:53:13.404Z,19.45
2024-05-09T03:55:40.796Z,19.13
2024-05-09T03:58:08.394Z,22.75
2024-05-09T04:00:38.799Z,22.77
2024-05-09T04:03:10.100Z,20.27
2024-05-09T04:05:43.142Z,21.42
2024-05-09T04:08:11.227Z,19.45
2024-05-09T04:10:38.399Z,21.10
2024-05-09T04:13:05.610Z,22.95
2024-05-09T04:15:32.712Z,25.33
2024-05-09T04:18:00.015Z,21.75
2024-05-09T04:22:56.944Z,20.23
2024-05-09T04:25:23.897Z,26.20
2024-05-09T04:27:50.665Z,24.27
2024-05-09T04:30:25.722Z,19.00
2024-05-09T04:33:01.004Z,28.30
2024-05-09T04:35:28.010Z,21.58
2024-05-09T04:37:54.819Z,21.50
2024-05-09T04:40:28.533Z,23.48
2024-05-09T04:43:00.539Z,19.23
2024-05-09T04:45:27.291Z,20.08
2024-05-09T04:47:54.632Z,26.55
2024-05-09T04:50:29.987Z,19.67
2024-05-09T04:53:03.102Z,21.58
2024-05-09T04:55:33.347Z,24.80
2024-05-09T04:58:00.114Z,21.83
2024-05-09T05:00:34.713Z,25.17
2024-05-09T05:03:15.369Z,19.90
2024-05-09T05:05:45.317Z,24.48
2024-05-09T05:08:17.062Z,22.17
2024-05-09T05:10:45.455Z,22.08
2024-05-09T05:13:24.947Z,19.70
2024-05-09T05:15:56.550Z,25.98
2024-05-09T05:20:51.763Z,23.98
2024-05-09T05:23:20.445Z,19.30
2024-05-09T05:25:48.822Z,24.60
2024-05-09T05:28:17.050Z,20.95
2024-05-09T05:30:44.188Z,22.02
2024-05-09T05:33:13.644Z,31.75
2024-05-09T05:35:41.550Z,23.83
2024-05-09T05:38:09.279Z,25.48
2024-05-09T05:40:40.225Z,22.02
2024-05-09T05:46:04.621Z,23.15
2024-05-09T05:48:31.453Z,26.40
2024-05-09T05:51:00.433Z,27.95
2024-05-09T05:53:28.530Z,29.35
2024-05-09T05:55:55.323Z,27.80
2024-05-09T05:58:22.579Z,24.27
2024-05-09T06:00:50.775Z,24.83
2024-05-09T06:03:17.621Z,24.52
2024-05-09T06:05:45.913Z,23.13
2024-05-09T06:08:13.015Z,25.45
2024-05-09T06:10:41.342Z,25.23
2024-05-09T06:13:12.368Z,26.05
2024-05-09T06:15:40.647Z,22.73
2024-05-09T06:18:09.473Z,21.00
2024-05-09T06:20:39.488Z,23.33
2024-05-09T06:23:07.211Z,22.67
2024-05-09T06:25:35.712Z,22.00
2024-05-09T06:28:02.714Z,21.05
2024-05-09T06:30:37.979Z,21.17
2024-05-09T06:33:09.366Z,18.70
2024-05-09T06:35:37.441Z,21.05
2024-05-09T06:38:04.604Z,19.55
2024-05-09T06:40:37.470Z,23.50
2024-05-09T06:43:18.218Z,23.50
2024-05-09T06:45:48.246Z,21.90
2024-05-09T06:48:18.193Z,22.48
2024-05-09T06:50:45.485Z,23.85
2024-05-09T06:53:16.341Z,18.08
2024-05-09T06:55:43.259Z,16.55
2024-05-09T06:58:10.116Z,18.15
2024-05-09T07:00:39.991Z,19.13
2024-05-09T07:03:13.857Z,21.80
2024-05-09T07:05:43.074Z,18.95
2024-05-09T07:08:10.368Z,14.93
2024-05-09T07:10:37.680Z,15.18
2024-05-09T07:13:12.144Z,15.93
2024-05-09T07:15:39.726Z,15.70
2024-05-09T07:18:11.411Z,20.67
2024-05-09T07:20:39.263Z,18.23
2024-05-09T07:23:09.284Z,16.38
2024-05-09T07:25:36.307Z,16.15
2024-05-09T07:28:03.157Z,17.00
2024-05-09T07:30:33.595Z,19.65
2024-05-09T07:33:02.564Z,17.33
2024-05-09T07:35:30.262Z,16.38
2024-05-09T07:37:57.467Z,18.15
2024-05-09T07:40:32.735Z,17.30
2024-05-09T07:43:04.319Z,17.05
2024-05-09T07:45:47.980Z,21.42
2024-05-09T07:50:00.267Z,16.35
2024-05-09T07:53:49.094Z,17.67
2024-05-09T07:56:21.743Z,18.60
2024-05-09T07:58:50.810Z,19.08
2024-05-09T08:01:17.905Z,16.13
2024-05-09T08:03:45.066Z,14.75
2024-05-09T08:06:12.055Z,20.45
2024-05-09T08:08:38.774Z,19.92
2024-05-09T08:11:06.560Z,13.07
2024-05-09T08:13:33.456Z,15.15
2024-05-09T08:16:00.539Z,13.02
2024-05-09T08:18:27.751Z,16.05
2024-05-09T08:20:54.608Z,14.18
2024-05-09T08:23:21.385Z,12.32
2024-05-09T08:25:48.153Z,12.55
2024-05-09T08:28:15.683Z,13.55
2024-05-09T08:30:43.161Z,10.65
2024-05-09T08:33:10.367Z,13.73
2024-05-09T08:35:37.507Z,11.75
2024-05-09T08:38:06.300Z,14.45
2024-05-09T08:40:36.202Z,15.40
2024-05-09T08:43:11.019Z,13.23
2024-05-09T08:45:42.401Z,12.02
2024-05-09T08:48:12.055Z,14.68
2024-05-09T08:50:41.433Z,14.27
2024-05-09T08:53:08.947Z,9.20
2024-05-09T08:55:40.404Z,11.32
2024-05-09T08:58:12.755Z,11.77
2024-05-09T09:00:42.128Z,16.77
2024-05-09T09:03:11.649Z,14.43
2024-05-09T09:05:40.888Z,11.23
2024-05-09T09:08:08.814Z,11.00
2024-05-09T09:10:38.044Z,11.98
2024-05-09T09:13:07.235Z,12.68
2024-05-09T09:15:34.193Z,25.45
2024-05-09T09:18:01.500Z,10.02
2024-05-09T09:20:35.850Z,12.15
2024-05-09T09:23:04.526Z,13.02
2024-05-09T09:25:31.911Z,18.50
2024-05-09T09:27:59.138Z,12.25
2024-05-09T09:30:36.312Z,9.75
2024-05-09T09:33:13.963Z,9.30
2024-05-09T09:35:41.046Z,10.90
2024-05-09T09:38:10.475Z,7.45
2024-05-09T09:40:44.761Z,9.38
2024-05-09T09:43:19.486Z,9.02
2024-05-09T09:45:50.802Z,9.90
2024-05-09T09:48:17.751Z,11.50
2024-05-09T09:50:45.624Z,10.93
2024-05-09T09:53:12.812Z,15.07
2024-05-09T09:55:40.616Z,5.68
2024-05-09T09:58:09.790Z,10.63
2024-05-09T10:00:39.078Z,6.53
2024-05-09T10:03:05.936Z,8.20
2024-05-09T10:05:34.264Z,7.55
2024-05-09T10:08:06.697Z,6.28
2024-05-09T10:13:06.066Z,6.68
2024-05-09T10:15:45.479Z,5.38
2024-05-09T10:18:12.843Z,9.10
2024-05-09T10:20:44.226Z,6.57
2024-05-09T10:23:26.909Z,7.78
2024-05-09T10:26:05.403Z,6.50
2024-05-09T10:28:35.350Z,7.05
2024-05-09T10:31:13.886Z,4.60
2024-05-09T10:33:52.334Z,8.38
2024-05-09T10:36:25.210Z,9.63
2024-05-09T10:38:56.023Z,7.32
2024-05-09T10:41:23.986Z,9.45
2024-05-09T10:43:52.079Z,8.18
2024-05-09T10:46:19.631Z,4.88
2024-05-09T10:48:47.466Z,7.78
2024-05-09T10:51:14.465Z,6.75
2024-05-09T10:53:45.419Z,6.68
2024-05-09T10:56:14.068Z,4.60
2024-05-09T10:58:40.849Z,7.18
2024-05-09T11:01:09.239Z,6.28
2024-05-09T11:03:36.993Z,8.02
2024-05-09T11:06:05.468Z,8.18
2024-05-09T11:08:33.092Z,10.23
2024-05-09T11:11:00.447Z,7.55
2024-05-09T11:13:27.210Z,7.18
2024-05-09T11:15:54.132Z,9.73
2024-05-09T11:18:26.068Z,6.18
2024-05-09T11:20:55.552Z,7.82
2024-05-09T11:23:26.243Z,7.00
2024-05-09T11:25:54.838Z,5.88
2024-05-09T11:28:22.946Z,7.50
2024-05-09T11:30:50.890Z,7.28
2024-05-09T11:33:20.845Z,7.93
2024-05-09T11:35:47.901Z,10.05
2024-05-09T11:38:14.608Z,6.35
2024-05-09T11:40:41.721Z,4.45
2024-05-09T11:43:08.744Z,5.15
2024-05-09T11:45:35.557Z,6.53
2024-05-09T11:48:03.978Z,3.70
2024-05-09T11:50:35.306Z,8.68
2024-05-09T11:53:02.939Z,8.10
2024-05-09T11:55:29.753Z,7.05
2024-05-09T11:57:57.593Z,6.03
2024-05-09T12:00:33.766Z,4.97
2024-05-09T12:03:05.440Z,9.93
2024-05-09T12:05:34.215Z,8.75
2024-05-09T12:08:01.523Z,4.38
2024-05-09T12:10:33.478Z,7.18
2024-05-09T12:13:04.134Z,9.30
2024-05-09T12:15:32.643Z,4.40
2024-05-09T12:18:02.749Z,5.03
2024-05-09T12:20:36.655Z,3.88
2024-05-09T12:23:06.628Z,7.78
2024-05-09T12:25:33.720Z,6.05
2024-05-09T12:28:00.811Z,3.72
2024-05-09T12:30:36.126Z,10.77
2024-05-09T12:33:11.638Z,12.52
2024-05-09T12:35:39.294Z,6.72
2024-05-09T12:38:05.988Z,4.93
2024-05-09T12:40:36.837Z,8.35
2024-05-09T12:43:10.144Z,4.65
2024-05-09T12:45:38.638Z,5.70
2024-05-09T12:48:08.404Z,4.05
2024-05-09T12:50:35.986Z,4.40
2024-05-09T12:53:04.120Z,3.80
2024-05-09T12:55:40.360Z,14.95
2024-05-09T12:58:15.903Z,6.93
2024-05-09T13:00:43.450Z,5.22
2024-05-09T13:03:10.435Z,9.60
2024-05-09T13:05:37.412Z,11.32
2024-05-09T13:08:04.602Z,3.20
2024-05-09T13:10:33.101Z,4.95
2024-05-09T13:13:01.867Z,4.43
2024-05-09T13:15:30.591Z,9.35
2024-05-09T13:18:01.544Z,6.30
2024-05-09T13:20:33.524Z,5.28
2024-05-09T13:23:07.514Z,7.05
2024-05-09T13:25:35.872Z,4.18
2024-05-09T13:28:04.090Z,7.30
2024-05-09T13:30:39.094Z,4.68
2024-05-09T13:33:12.785Z,9.48
2024-05-09T13:35:46.694Z,5.03
2024-05-09T13:38:16.466Z,11.88
2024-05-09T13:40:43.236Z,6.63
2024-05-09T13:43:10.064Z,5.13
2024-05-09T13:45:36.852Z,4.97
2024-05-09T13:48:04.564Z,3.47
2024-05-09T13:50:35.324Z,4.32
2024-05-09T13:53:06.346Z,7.22
2024-05-09T13:55:34.299Z,5.88
2024-05-09T13:58:01.418Z,4.38
2024-05-09T14:00:41.677Z,4.93
2024-05-09T14:03:14.015Z,5.85
2024-05-09T14:05:41.271Z,7.43
2024-05-09T14:08:09.175Z,4.28
2024-05-09T14:10:36.173Z,10.48
2024-05-09T14:13:03.048Z,2.47
2024-05-09T14:15:29.951Z,6.32
2024-05-09T14:17:56.856Z,3.33
2024-05-09T14:20:30.669Z,5.97
2024-05-09T14:23:00.427Z,7.28
2024-05-09T14:25:28.798Z,8.35
2024-05-09T14:27:58.154Z,6.32
2024-05-09T14:30:33.740Z,3.83
2024-05-09T14:33:04.463Z,5.78
2024-05-09T14:35:31.466Z,4.40
2024-05-09T14:37:58.855Z,5.63
2024-05-09T14:40:36.269Z,6.43
2024-05-09T14:45:35.174Z,6.40
2024-05-09T14:48:03.060Z,5.80
2024-05-09T14:50:35.963Z,7.88
2024-05-09T14:53:07.026Z,9.20
2024-05-09T14:55:39.811Z,5.25
2024-05-09T14:58:08.526Z,8.75
2024-05-09T15:00:41.259Z,7.90
2024-05-09T15:03:11.374Z,3.40
2024-05-09T15:05:38.291Z,6.25
2024-05-09T15:08:08.757Z,3.53
2024-05-09T15:10:36.923Z,3.67
2024-05-09T15:13:07.030Z,12.52
2024-05-09T15:15:35.407Z,2.88
2024-05-09T15:18:04.148Z,3.70
2024-05-09T15:20:35.292Z,7.03
2024-05-09T15:23:06.874Z,10.43
2024-05-09T15:25:35.340Z,6.65
2024-05-09T15:28:02.568Z,3.10
2024-05-09T15:30:36.154Z,8.10
2024-05-09T15:33:04.077Z,5.72
2024-05-09T15:35:31.267Z,6.60
2024-05-09T15:37:58.198Z,5.20
2024-05-09T15:40:34.823Z,3.60
2024-05-09T15:43:07.130Z,8.27
2024-05-09T15:45:34.692Z,7.15
2024-05-09T15:48:02.578Z,5.88
2024-05-09T15:50:37.009Z,10.25
2024-05-09T15:53:08.116Z,5.50
2024-05-09T15:55:35.850Z,7.70
2024-05-09T15:58:04.153Z,7.28
2024-05-09T16:00:38.869Z,9.88
2024-05-09T16:03:13.876Z,5.57
2024-05-09T16:05:44.517Z,5.05
2024-05-09T16:08:12.703Z,5.90
2024-05-09T16:10:44.236Z,7.68
2024-05-09T16:13:12.172Z,12.52
2024-05-09T16:15:39.178Z,6.05
2024-05-09T16:18:06.711Z,7.15
2024-05-09T16:20:38.745Z,8.55
2024-05-09T16:23:08.937Z,4.35
2024-05-09T16:25:36.362Z,7.43
2024-05-09T16:28:07.435Z,5.72
2024-05-09T16:30:37.198Z,12.48
2024-05-09T16:33:05.394Z,8.32
2024-05-09T16:35:32.736Z,7.18
2024-05-09T16:38:01.865Z,7.10
2024-05-09T16:40:36.380Z,5.32
2024-05-09T16:43:07.311Z,6.53
2024-05-09T16:45:34.597Z,6.07
2024-05-09T16:48:01.918Z,10.15
2024-05-09T16:50:33.449Z,10.05
2024-05-09T16:53:02.667Z,5.97
2024-05-09T16:55:29.548Z,9.13
2024-05-09T16:57:57.471Z,14.15
2024-05-09T17:00:35.454Z,6.28
2024-05-09T17:03:09.734Z,4.35
2024-05-09T17:05:37.217Z,6.13
2024-05-09T17:08:04.938Z,5.40
2024-05-09T17:10:34.106Z,10.60
2024-05-09T17:13:03.611Z,7.85
2024-05-09T17:15:32.215Z,5.80
2024-05-09T17:17:59.320Z,7.30
2024-05-09T17:20:32.562Z,8.25
2024-05-09T17:23:03.054Z,5.32
2024-05-09T17:25:30.100Z,6.60
2024-05-09T17:27:57.273Z,11.07
2024-05-09T17:30:29.371Z,8.93
2024-05-09T17:33:03.501Z,6.95
2024-05-09T17:35:31.194Z,6.28
2024-05-09T17:37:58.526Z,5.13
2024-05-09T17:40:31.481Z,5.80
2024-05-09T17:43:02.814Z,9.50
2024-05-09T17:45:29.792Z,5.35
2024-05-09T17:47:56.902Z,8.93
2024-05-09T17:50:30.405Z,6.93
2024-05-09T17:53:01.834Z,4.80
2024-05-09T17:55:29.061Z,7.10
2024-05-09T17:57:56.036Z,6.20
2024-05-09T18:00:33.156Z,5.75
2024-05-09T18:05:32.939Z,9.32
2024-05-09T18:08:00.052Z,8.45
2024-05-09T18:10:33.784Z,11.52
2024-05-09T18:13:05.796Z,7.07
2024-05-09T18:15:33.169Z,10.40
2024-05-09T18:18:00.763Z,8.20
2024-05-09T18:20:37.608Z,7.63
2024-05-09T18:23:10.159Z,6.65
2024-05-09T18:25:37.286Z,8.50
2024-05-09T18:28:04.657Z,7.63
2024-05-09T18:30:35.057Z,10.93
2024-05-09T18:33:05.530Z,8.50
2024-05-09T18:35:33.599Z,6.97
2024-05-09T18:38:00.680Z,7.07
2024-05-09T18:40:33.023Z,7.18
2024-05-09T18:43:03.732Z,7.85
2024-05-09T18:45:30.799Z,8.45
2024-05-09T18:47:58.210Z,10.95
2024-05-09T18:50:33.999Z,6.47
2024-05-09T18:53:08.266Z,6.00
2024-05-09T18:55:35.511Z,6.43
2024-05-09T18:58:03.354Z,9.00
2024-05-09T19:00:35.781Z,7.00
2024-05-09T19:03:09.701Z,9.27
2024-05-09T19:05:39.311Z,8.73
2024-05-09T19:08:07.891Z,5.30
2024-05-09T19:10:36.610Z,8.88
2024-05-09T19:13:09.345Z,7.72
2024-05-09T19:15:40.160Z,8.38
2024-05-09T19:18:07.824Z,6.82
2024-05-09T19:20:36.398Z,8.02
2024-05-09T19:23:04.976Z,9.40
2024-05-09T19:25:32.856Z,9.55
2024-05-09T19:28:00.095Z,9.52
2024-05-09T19:30:36.511Z,5.03
2024-05-09T19:33:07.733Z,5.53
2024-05-09T19:35:34.699Z,13.90
2024-05-09T19:38:01.898Z,8.57
2024-05-09T19:40:32.049Z,6.85
2024-05-09T19:43:05.548Z,10.25
2024-05-09T19:45:34.276Z,11.48
2024-05-09T19:48:02.292Z,5.55
2024-05-09T19:50:39.300Z,9.93
2024-05-09T19:53:10.194Z,7.05
2024-05-09T19:55:37.604Z,8.70
2024-05-09T19:58:07.092Z,5.93
2024-05-09T20:00:37.326Z,8.43
2024-05-09T20:03:06.577Z,7.27
2024-05-09T20:05:34.098Z,7.32
2024-05-09T20:08:01.100Z,10.88
2024-05-09T20:10:32.470Z,6.15
2024-05-09T20:13:01.583Z,7.78
2024-05-09T20:15:28.481Z,8.93
2024-05-09T20:17:55.640Z,7.25
2024-05-09T20:20:32.519Z,7.68
2024-05-09T20:23:04.818Z,8.75
2024-05-09T20:25:31.699Z,9.38
2024-05-09T20:27:58.438Z,11.27
2024-05-09T20:30:31.476Z,9.25
2024-05-09T20:33:01.857Z,9.25
2024-05-09T20:35:31.949Z,7.22
2024-05-09T20:37:59.389Z,5.20
2024-05-09T20:40:32.304Z,6.97
2024-05-09T20:43:02.983Z,8.25
2024-05-09T20:45:29.757Z,5.28
2024-05-09T20:47:57.575Z,6.47
2024-05-09T20:50:35.407Z,11.65
2024-05-09T20:53:12.148Z,11.63
2024-05-09T20:55:40.058Z,8.00
2024-05-09T20:58:06.890Z,8.50
2024-05-09T21:00:39.985Z,7.70
2024-05-09T21:03:10.891Z,8.60
2024-05-09T21:05:38.409Z,6.90
2024-05-09T21:08:05.813Z,4.65
2024-05-09T21:10:34.039Z,9.20
2024-05-09T21:13:03.001Z,6.45
2024-05-09T21:15:30.675Z,9.85
2024-05-09T21:17:57.618Z,10.60
2024-05-09T21:20:30.941Z,11.38
2024-05-09T21:22:59.439Z,9.32
2024-05-09T21:25:26.524Z,5.53
2024-05-09T21:27:53.453Z,11.32
2024-05-09T21:30:32.320Z,5.95
2024-05-09T21:33:12.550Z,12.73
2024-05-09T21:35:41.719Z,7.20
2024-05-09T21:38:08.775Z,6.32
2024-05-09T21:40:39.373Z,13.40
2024-05-09T21:43:07.613Z,6.78
2024-05-09T21:45:35.358Z,9.73
2024-05-09T21:48:06.565Z,9.63
2024-05-09T21:50:39.775Z,6.18
2024-05-09T21:53:08.907Z,9.73
2024-05-09T21:55:35.936Z,8.52
2024-05-09T21:58:03.424Z,11.57
2024-05-09T22:00:36.301Z,7.68
2024-05-09T22:03:10.603Z,7.55
2024-05-09T22:05:42.065Z,8.77
2024-05-09T22:08:09.531Z,9.82
2024-05-09T22:10:37.158Z,7.00
2024-05-09T22:13:08.558Z,8.55
2024-05-09T22:15:37.824Z,8.23
2024-05-09T22:18:08.619Z,7.40
2024-05-09T22:20:52.858Z,12.15
2024-05-09T22:23:34.529Z,7.63
2024-05-09T22:26:01.286Z,9.30
2024-05-09T22:28:28.061Z,5.72
2024-05-09T22:30:56.066Z,7.65
2024-05-09T22:33:31.517Z,8.98
2024-05-09T22:36:10.035Z,11.63
2024-05-09T22:38:48.472Z,12.43
2024-05-09T22:41:24.181Z,11.60
2024-05-09T22:43:56.627Z,8.60
2024-05-09T22:48:50.295Z,7.03
2024-05-09T22:51:17.143Z,9.25
2024-05-09T22:53:43.853Z,6.70
2024-05-09T22:56:14.043Z,10.10
2024-05-09T22:58:40.766Z,14.63
2024-05-09T23:01:14.827Z,10.13
2024-05-09T23:03:41.797Z,7.35
2024-05-09T23:06:08.735Z,6.63
2024-05-09T23:08:35.569Z,11.65
2024-05-09T23:11:03.995Z,12.70
2024-05-09T23:13:30.805Z,6.55
2024-05-09T23:15:57.849Z,9.32
2024-05-09T23:18:24.611Z,7.38
2024-05-09T23:20:51.929Z,7.03
2024-05-09T23:23:18.826Z,7.25
2024-05-09T23:25:45.640Z,6.97
2024-05-09T23:28:12.686Z,7.63
2024-05-09T23:30:41.128Z,9.18
2024-05-09T23:33:13.315Z,7.97
2024-05-09T23:35:42.212Z,6.53
2024-05-09T23:38:09.140Z,9.25
2024-05-09T23:40:39.626Z,7.88
2024-05-09T23:43:10.403Z,7.35
2024-05-09T23:45:38.591Z,5.20
2024-05-09T23:48:06.564Z,6.63
2024-05-09T23:50:36.807Z,16.02
2024-05-09T23:53:07.988Z,9.73
2024-05-09T23:55:36.106Z,7.80
2024-05-09T23:58:02.959Z,10.52
